createdAt,value
2022-08-14T00:01:24.148Z,26.30
2022-08-14T00:03:54.581Z,26.20
2022-08-14T00:06:27.767Z,26.20
2022-08-14T00:08:59.235Z,26.20
2022-08-14T00:11:31.885Z,26.10
2022-08-14T00:13:59.634Z,26.10
2022-08-14T00:16:44.197Z,26.10
2022-08-14T00:19:18.680Z,26.20
2022-08-14T00:21:45.691Z,26.40
2022-08-14T00:24:12.404Z,26.60
2022-08-14T00:26:39.606Z,26.70
2022-08-14T00:29:06.342Z,26.70
2022-08-14T00:31:44.506Z,26.60
2022-08-14T00:34:35.419Z,26.60
2022-08-14T00:36:59.411Z,26.50
2022-08-14T00:39:26.160Z,26.40
2022-08-14T00:41:53.178Z,26.40
2022-08-14T00:44:26.626Z,26.30
2022-08-14T00:47:00.317Z,26.20
2022-08-14T00:49:30.216Z,26.20
2022-08-14T00:51:57.102Z,26.10
2022-08-14T00:54:24.996Z,26.10
2022-08-14T00:56:55.428Z,26.10
2022-08-14T00:59:23.926Z,26.10
2022-08-14T01:01:51.608Z,26.00
2022-08-14T01:04:38.297Z,26.10
2022-08-14T01:07:09.816Z,26.20
2022-08-14T01:09:36.629Z,26.40
2022-08-14T01:12:03.961Z,26.50
2022-08-14T01:14:30.636Z,26.70
2022-08-14T01:16:57.487Z,26.70
2022-08-14T01:19:43.288Z,26.60
2022-08-14T01:22:13.116Z,26.50
2022-08-14T01:24:41.373Z,26.40
2022-08-14T01:27:20.045Z,26.40
2022-08-14T01:30:01.095Z,26.30
2022-08-14T01:32:35.553Z,26.30
2022-08-14T01:35:17.242Z,26.20
2022-08-14T01:37:56.619Z,26.10
2022-08-14T01:40:25.628Z,26.10
2022-08-14T01:43:00.132Z,26.10
2022-08-14T01:45:31.450Z,26.10
2022-08-14T01:48:07.993Z,26.10
2022-08-14T01:50:41.638Z,26.00
2022-08-14T01:53:08.401Z,26.00
2022-08-14T01:55:36.089Z,26.00
2022-08-14T01:58:19.386Z,26.10
2022-08-14T02:00:54.970Z,26.30
2022-08-14T02:03:32.050Z,26.40
2022-08-14T02:05:59.995Z,26.60
2022-08-14T02:08:35.095Z,26.60
2022-08-14T02:11:18.862Z,26.50
2022-08-14T02:13:47.753Z,26.40
2022-08-14T02:16:22.261Z,26.30
2022-08-14T02:18:49.782Z,26.30
2022-08-14T02:21:19.390Z,26.20
2022-08-14T02:23:53.412Z,26.10
2022-08-14T02:26:24.786Z,26.10
2022-08-14T02:29:00.319Z,26.10
2022-08-14T02:31:42.379Z,26.10
2022-08-14T02:34:22.053Z,26.10
2022-08-14T02:37:04.653Z,26.00
2022-08-14T02:39:34.608Z,26.00
2022-08-14T02:42:04.418Z,25.90
2022-08-14T02:44:31.273Z,25.90
2022-08-14T02:47:07.180Z,26.00
2022-08-14T02:49:42.727Z,26.20
2022-08-14T02:52:55.826Z,26.30
2022-08-14T02:54:57.578Z,26.50
2022-08-14T02:57:40.489Z,26.60
2022-08-14T03:00:09.985Z,26.50
2022-08-14T03:02:56.775Z,26.40
2022-08-14T03:05:24.197Z,26.40
2022-08-14T03:07:51.840Z,26.20
2022-08-14T03:10:25.774Z,26.20
2022-08-14T03:12:59.105Z,26.10
2022-08-14T03:15:27.473Z,26.10
2022-08-14T03:17:57.350Z,26.10
2022-08-14T03:20:25.878Z,26.00
2022-08-14T03:22:52.771Z,26.00
2022-08-14T03:25:22.166Z,26.00
2022-08-14T03:27:58.082Z,25.90
2022-08-14T03:30:39.872Z,25.90
2022-08-14T03:33:08.641Z,25.90
2022-08-14T03:35:40.220Z,25.80
2022-08-14T03:39:13.131Z,26.00
2022-08-14T03:41:16.658Z,26.10
2022-08-14T03:43:43.668Z,26.30
2022-08-14T03:46:39.220Z,26.30
2022-08-14T03:48:58.044Z,26.30
2022-08-14T03:51:28.732Z,26.20
2022-08-14T03:53:57.098Z,26.10
2022-08-14T03:56:26.630Z,26.10
2022-08-14T03:58:56.177Z,26.10
2022-08-14T04:01:25.353Z,26.00
2022-08-14T04:03:58.121Z,25.90
2022-08-14T04:06:28.483Z,25.90
2022-08-14T04:08:58.420Z,25.90
2022-08-14T04:11:25.109Z,25.80
2022-08-14T04:13:51.917Z,25.80
2022-08-14T04:16:20.576Z,25.80
2022-08-14T04:18:48.321Z,26.00
2022-08-14T04:21:16.118Z,26.10
2022-08-14T04:23:43.474Z,26.30
2022-08-14T04:26:14.940Z,26.40
2022-08-14T04:29:07.631Z,26.40
2022-08-14T04:33:00.851Z,26.40
2022-08-14T04:34:27.932Z,26.30
2022-08-14T04:37:13.496Z,26.20
2022-08-14T04:40:08.809Z,26.10
2022-08-14T04:42:54.296Z,26.10
2022-08-14T04:45:21.825Z,26.00
2022-08-14T04:48:10.101Z,26.00
2022-08-14T04:50:37.831Z,25.90
2022-08-14T04:53:12.901Z,25.90
2022-08-14T04:55:40.573Z,25.80
2022-08-14T04:58:21.563Z,25.80
2022-08-14T05:00:50.899Z,25.80
2022-08-14T05:03:22.393Z,25.80
2022-08-14T05:05:52.177Z,25.80
2022-08-14T05:08:32.135Z,25.70
2022-08-14T05:11:11.919Z,25.90
2022-08-14T05:13:59.474Z,26.00
2022-08-14T05:16:29.419Z,26.20
2022-08-14T05:19:17.889Z,26.40
2022-08-14T05:21:59.972Z,26.50
2022-08-14T05:24:28.682Z,26.40
2022-08-14T05:26:55.729Z,26.40
2022-08-14T05:29:23.404Z,26.30
2022-08-14T05:31:50.568Z,26.20
2022-08-14T05:34:28.683Z,26.10
2022-08-14T05:37:01.871Z,26.10
2022-08-14T05:39:29.981Z,26.00
2022-08-14T05:41:57.949Z,26.00
2022-08-14T05:44:29.559Z,25.90
2022-08-14T05:46:57.324Z,25.90
2022-08-14T05:49:32.617Z,25.90
2022-08-14T05:52:01.863Z,25.80
2022-08-14T05:54:34.543Z,25.80
2022-08-14T05:57:03.247Z,25.80
2022-08-14T05:59:39.301Z,25.80
2022-08-14T06:02:10.129Z,25.70
2022-08-14T06:04:37.527Z,25.70
2022-08-14T06:07:04.867Z,25.70
2022-08-14T06:09:35.976Z,25.70
2022-08-14T06:12:10.454Z,25.60
2022-08-14T06:14:38.890Z,25.50
2022-08-14T06:17:05.842Z,25.40
2022-08-14T06:19:33.712Z,25.30
2022-08-14T06:22:03.554Z,25.20
2022-08-14T06:24:35.069Z,25.00
2022-08-14T06:27:06.505Z,24.90
2022-08-14T06:29:36.928Z,24.80
2022-08-14T06:32:52.457Z,24.80
2022-08-14T06:35:04.694Z,24.70
2022-08-14T06:37:45.265Z,24.60
2022-08-14T06:40:25.662Z,24.60
2022-08-14T06:42:54.793Z,24.60
2022-08-14T06:45:21.555Z,24.60
2022-08-14T06:47:53.809Z,24.60
2022-08-14T06:50:21.747Z,24.60
2022-08-14T06:52:55.135Z,24.60
2022-08-14T06:55:26.535Z,24.60
2022-08-14T06:57:54.758Z,24.60
2022-08-14T07:00:27.101Z,24.60
2022-08-14T07:03:13.314Z,24.60
2022-08-14T07:05:55.328Z,24.80
2022-08-14T07:08:29.553Z,25.00
2022-08-14T07:10:59.596Z,25.10
2022-08-14T07:13:27.665Z,25.30
2022-08-14T07:15:55.506Z,25.40
2022-08-14T07:18:29.352Z,25.50
2022-08-14T07:20:56.294Z,25.50
2022-08-14T07:23:24.124Z,25.50
2022-08-14T07:25:52.001Z,25.40
2022-08-14T07:28:20.576Z,25.40
2022-08-14T07:30:51.029Z,25.40
2022-08-14T07:33:18.713Z,25.40
2022-08-14T07:35:58.745Z,25.40
2022-08-14T07:38:33.690Z,25.30
2022-08-14T07:41:03.477Z,25.30
2022-08-14T07:43:34.296Z,25.30
2022-08-14T07:46:01.254Z,25.30
2022-08-14T07:48:29.856Z,25.40
2022-08-14T07:51:03.244Z,25.40
2022-08-14T07:53:40.516Z,25.40
2022-08-14T07:56:21.456Z,25.40
2022-08-14T07:58:55.116Z,25.50
2022-08-14T08:01:25.437Z,25.70
2022-08-14T08:03:59.714Z,25.90
2022-08-14T08:06:27.539Z,26.00
2022-08-14T08:09:00.954Z,26.20
2022-08-14T08:11:34.651Z,26.30
2022-08-14T08:14:10.866Z,26.30
2022-08-14T08:16:46.052Z,26.20
2022-08-14T08:19:14.120Z,26.20
2022-08-14T08:21:43.895Z,26.10
2022-08-14T08:24:12.406Z,26.10
2022-08-14T08:26:41.791Z,26.10
2022-08-14T08:29:09.599Z,26.10
2022-08-14T08:31:52.021Z,26.10
2022-08-14T08:34:19.421Z,26.10
2022-08-14T08:36:47.216Z,26.10
2022-08-14T08:39:21.831Z,26.00
2022-08-14T08:41:53.159Z,26.10
2022-08-14T08:44:31.553Z,26.00
2022-08-14T08:47:01.601Z,26.00
2022-08-14T08:49:42.953Z,26.00
2022-08-14T08:52:25.593Z,26.00
2022-08-14T08:54:57.806Z,26.10
2022-08-14T08:57:25.550Z,26.30
2022-08-14T08:59:55.339Z,26.40
2022-08-14T09:02:25.978Z,26.50
2022-08-14T09:05:00.754Z,26.50
2022-08-14T09:07:27.507Z,26.50
2022-08-14T09:09:59.477Z,26.40
2022-08-14T09:12:31.547Z,26.40
2022-08-14T09:15:11.664Z,26.40
2022-08-14T09:17:42.899Z,26.30
2022-08-14T09:20:11.411Z,26.30
2022-08-14T09:22:47.830Z,26.20
2022-08-14T09:25:15.805Z,26.20
2022-08-14T09:27:42.553Z,26.20
2022-08-14T09:30:12.919Z,26.20
2022-08-14T09:33:00.137Z,26.10
2022-08-14T09:35:43.403Z,26.10
2022-08-14T09:38:25.802Z,26.10
2022-08-14T09:40:54.164Z,26.10
2022-08-14T09:43:30.538Z,26.20
2022-08-14T09:46:02.699Z,26.30
2022-08-14T09:48:30.384Z,26.40
2022-08-14T09:50:58.119Z,26.50
2022-08-14T09:54:12.781Z,26.70
2022-08-14T09:56:30.833Z,26.70
2022-08-14T09:58:59.194Z,26.70
2022-08-14T10:01:35.177Z,26.60
2022-08-14T10:04:04.229Z,26.60
2022-08-14T10:06:32.928Z,26.50
2022-08-14T10:09:02.988Z,26.40
2022-08-14T10:11:35.995Z,26.40
2022-08-14T10:14:29.509Z,26.40
2022-08-14T10:17:05.983Z,26.40
2022-08-14T10:19:35.529Z,26.40
2022-08-14T10:23:21.819Z,26.30
2022-08-14T10:24:57.590Z,26.30
2022-08-14T10:27:38.782Z,26.30
2022-08-14T10:30:12.083Z,26.40
2022-08-14T10:32:51.837Z,26.60
2022-08-14T10:35:22.461Z,26.70
2022-08-14T10:37:50.955Z,26.80
2022-08-14T10:40:38.654Z,26.80
2022-08-14T10:43:18.489Z,26.80
2022-08-14T10:45:59.707Z,26.70
2022-08-14T10:48:44.907Z,26.70
2022-08-14T10:51:15.217Z,26.60
2022-08-14T10:53:41.969Z,26.60
2022-08-14T10:56:21.421Z,26.60
2022-08-14T10:59:01.758Z,26.50
2022-08-14T11:01:40.793Z,26.50
2022-08-14T11:04:25.107Z,26.50
2022-08-14T11:06:53.479Z,26.40
2022-08-14T11:09:20.317Z,26.50
2022-08-14T11:11:55.142Z,26.50
2022-08-14T11:14:22.996Z,26.70
2022-08-14T11:16:53.672Z,26.80
2022-08-14T11:19:20.657Z,26.90
2022-08-14T11:21:51.801Z,26.90
2022-08-14T11:24:54.181Z,26.90
2022-08-14T11:27:11.592Z,26.80
2022-08-14T11:29:38.477Z,26.80
2022-08-14T11:32:06.775Z,26.80
2022-08-14T11:34:43.309Z,26.70
2022-08-14T11:37:22.854Z,26.70
2022-08-14T11:40:01.437Z,26.60
2022-08-14T11:42:56.960Z,26.60
2022-08-14T11:45:17.129Z,26.60
2022-08-14T11:48:13.160Z,26.50
2022-08-14T11:50:36.180Z,26.50
2022-08-14T11:53:05.071Z,26.60
2022-08-14T11:55:35.596Z,26.70
2022-08-14T11:58:06.001Z,26.80
2022-08-14T12:00:37.045Z,27.00
2022-08-14T12:03:07.021Z,27.00
2022-08-14T12:05:35.812Z,27.00
2022-08-14T12:08:06.737Z,27.10
2022-08-14T12:10:42.862Z,27.20
2022-08-14T12:13:17.329Z,27.20
2022-08-14T12:15:45.153Z,27.30
2022-08-14T12:18:19.514Z,27.40
2022-08-14T12:20:52.467Z,27.40
2022-08-14T12:23:26.053Z,27.50
2022-08-14T12:26:31.536Z,27.60
2022-08-14T12:29:08.082Z,27.60
2022-08-14T12:31:36.212Z,27.70
2022-08-14T12:34:12.105Z,27.70
2022-08-14T12:36:39.954Z,27.70
2022-08-14T12:39:21.411Z,27.80
2022-08-14T12:41:57.336Z,27.80
2022-08-14T12:44:34.381Z,27.90
2022-08-14T12:47:04.995Z,27.90
2022-08-14T12:49:34.407Z,28.00
2022-08-14T12:52:01.593Z,28.00
2022-08-14T12:54:32.025Z,28.10
2022-08-14T12:57:03.267Z,28.10
2022-08-14T12:59:30.948Z,28.10
2022-08-14T13:02:00.070Z,28.20
2022-08-14T13:04:31.356Z,28.20
2022-08-14T13:07:08.589Z,28.10
2022-08-14T13:09:36.459Z,28.00
2022-08-14T13:12:32.713Z,27.90
2022-08-14T13:14:52.833Z,27.80
2022-08-14T13:17:19.663Z,27.70
2022-08-14T13:19:47.788Z,27.70
2022-08-14T13:22:28.807Z,27.70
2022-08-14T13:24:58.904Z,27.80
2022-08-14T13:27:25.923Z,27.80
2022-08-14T13:29:54.588Z,27.90
2022-08-14T13:32:22.215Z,27.80
2022-08-14T13:34:52.680Z,27.80
2022-08-14T13:37:19.588Z,27.70
2022-08-14T13:39:47.388Z,27.60
2022-08-14T13:42:27.218Z,27.60
2022-08-14T13:44:58.380Z,27.50
2022-08-14T13:47:29.589Z,27.50
2022-08-14T13:50:02.919Z,27.50
2022-08-14T13:52:52.136Z,27.60
2022-08-14T13:55:22.957Z,27.60
2022-08-14T13:58:04.294Z,27.70
2022-08-14T14:00:35.721Z,27.70
2022-08-14T14:03:30.288Z,27.70
2022-08-14T14:09:05.565Z,27.60
2022-08-14T14:11:53.126Z,27.50
2022-08-14T14:14:29.796Z,27.50
2022-08-14T14:17:08.207Z,27.40
2022-08-14T14:19:41.390Z,27.30
2022-08-14T14:22:09.727Z,27.30
2022-08-14T14:24:36.821Z,27.30
2022-08-14T14:27:38.863Z,27.30
2022-08-14T14:29:55.735Z,27.40
2022-08-14T14:32:32.148Z,27.50
2022-08-14T14:35:01.458Z,27.60
2022-08-14T14:37:29.025Z,27.60
2022-08-14T14:40:54.069Z,27.60
2022-08-14T14:42:51.760Z,27.50
2022-08-14T14:45:21.274Z,27.40
2022-08-14T14:47:48.970Z,27.40
2022-08-14T14:50:17.074Z,27.30
2022-08-14T14:52:53.957Z,27.20
2022-08-14T14:55:43.275Z,27.20
2022-08-14T14:58:28.827Z,27.20
2022-08-14T15:00:55.603Z,27.20
2022-08-14T15:03:23.337Z,27.20
2022-08-14T15:05:53.266Z,27.30
2022-08-14T15:08:26.711Z,27.40
2022-08-14T15:11:13.667Z,27.50
2022-08-14T15:13:43.302Z,27.60
2022-08-14T15:16:19.837Z,27.60
2022-08-14T15:18:58.510Z,27.50
2022-08-14T15:21:25.318Z,27.50
2022-08-14T15:23:54.184Z,27.40
2022-08-14T15:26:23.718Z,27.30
2022-08-14T15:29:06.492Z,27.30
2022-08-14T15:31:37.228Z,27.20
2022-08-14T15:34:42.958Z,27.20
2022-08-14T15:36:58.140Z,27.20
2022-08-14T15:39:25.627Z,27.10
2022-08-14T15:41:57.991Z,27.20
2022-08-14T15:44:28.021Z,27.30
2022-08-14T15:46:59.897Z,27.30
2022-08-14T15:49:34.826Z,27.50
2022-08-14T15:52:03.192Z,27.50
2022-08-14T15:54:31.315Z,27.50
2022-08-14T15:56:58.937Z,27.50
2022-08-14T15:59:27.093Z,27.50
2022-08-14T16:01:55.104Z,27.40
2022-08-14T16:04:23.785Z,27.30
2022-08-14T16:06:55.555Z,27.20
2022-08-14T16:09:22.860Z,27.20
2022-08-14T16:11:53.778Z,27.20
2022-08-14T16:14:21.414Z,27.10
2022-08-14T16:16:59.820Z,27.10
2022-08-14T16:19:27.896Z,27.10
2022-08-14T16:22:01.446Z,27.20
2022-08-14T16:25:00.574Z,27.20
2022-08-14T16:27:39.416Z,27.30
2022-08-14T16:30:20.855Z,27.40
2022-08-14T16:32:56.796Z,27.40
2022-08-14T16:35:42.354Z,27.40
2022-08-14T16:38:22.286Z,27.30
2022-08-14T16:41:17.195Z,27.30
2022-08-14T16:43:44.792Z,27.20
2022-08-14T16:46:13.068Z,27.20
2022-08-14T16:48:54.990Z,27.10
2022-08-14T16:51:24.116Z,27.20
2022-08-14T16:53:50.842Z,27.30
2022-08-14T16:56:23.650Z,27.40
2022-08-14T16:58:51.599Z,27.40
2022-08-14T17:01:24.407Z,27.50
2022-08-14T17:03:52.165Z,27.60
2022-08-14T17:06:37.605Z,27.60
2022-08-14T17:09:05.039Z,27.60
2022-08-14T17:11:32.746Z,27.50
2022-08-14T17:14:05.757Z,27.50
2022-08-14T17:16:37.434Z,27.40
2022-08-14T17:19:05.497Z,27.40
2022-08-14T17:21:37.229Z,27.30
2022-08-14T17:24:57.130Z,27.20
2022-08-14T17:26:55.579Z,27.20
2022-08-14T17:32:28.047Z,27.20
2022-08-14T17:34:57.996Z,27.40
2022-08-14T17:37:29.689Z,27.40
2022-08-14T17:40:15.330Z,27.50
2022-08-14T17:42:50.994Z,27.60
2022-08-14T17:45:28.174Z,27.60
2022-08-14T17:47:56.926Z,27.50
2022-08-14T17:51:01.925Z,27.50
2022-08-14T17:53:30.501Z,27.50
2022-08-14T17:56:03.389Z,27.40
2022-08-14T17:58:38.408Z,27.30
2022-08-14T18:01:09.874Z,27.30
2022-08-14T18:03:50.167Z,27.30
2022-08-14T18:06:39.162Z,27.20
2022-08-14T18:09:26.122Z,27.20
2022-08-14T18:11:54.113Z,27.20
2022-08-14T18:14:32.620Z,27.40
2022-08-14T18:17:10.653Z,27.50
2022-08-14T18:19:38.091Z,27.50
2022-08-14T18:22:23.644Z,27.50
2022-08-14T18:24:55.943Z,27.50
2022-08-14T18:27:23.432Z,27.40
2022-08-14T18:29:54.990Z,27.30
2022-08-14T18:32:31.650Z,27.20
2022-08-14T18:35:02.371Z,27.20
2022-08-14T18:37:30.905Z,27.20
2022-08-14T18:40:17.902Z,27.10
2022-08-14T18:42:45.465Z,27.10
2022-08-14T18:45:16.114Z,27.00
2022-08-14T18:48:16.737Z,27.00
2022-08-14T18:50:34.100Z,27.00
2022-08-14T18:53:11.763Z,26.90
2022-08-14T18:55:53.518Z,26.90
2022-08-14T18:58:42.578Z,26.80
2022-08-14T19:01:21.683Z,26.80
2022-08-14T19:03:48.879Z,26.80
2022-08-14T19:06:16.818Z,26.70
2022-08-14T19:08:46.497Z,26.70
2022-08-14T19:11:32.527Z,26.70
2022-08-14T19:13:59.489Z,26.70
2022-08-14T19:16:35.981Z,26.70
2022-08-14T19:19:04.353Z,26.60
2022-08-14T19:21:34.813Z,26.60
2022-08-14T19:24:27.448Z,26.60
2022-08-14T19:27:16.464Z,26.60
2022-08-14T19:29:48.291Z,26.60
2022-08-14T19:32:40.199Z,26.50
2022-08-14T19:35:18.375Z,26.50
2022-08-14T19:37:52.327Z,26.50
2022-08-14T19:40:34.066Z,26.50
2022-08-14T19:43:01.447Z,26.50
2022-08-14T19:45:33.580Z,26.40
2022-08-14T19:48:02.921Z,26.40
2022-08-14T19:50:38.902Z,26.40
2022-08-14T19:53:16.736Z,26.40
2022-08-14T19:55:54.641Z,26.40
2022-08-14T19:58:28.065Z,26.40
2022-08-14T20:00:57.268Z,26.40
2022-08-14T20:03:24.989Z,26.40
2022-08-14T20:06:05.342Z,26.40
2022-08-14T20:09:06.114Z,26.40
2022-08-14T20:12:00.405Z,26.30
2022-08-14T20:14:20.683Z,26.30
2022-08-14T20:16:51.133Z,26.30
2022-08-14T20:19:28.881Z,26.30
2022-08-14T20:22:35.483Z,26.30
2022-08-14T20:24:49.947Z,26.20
2022-08-14T20:27:40.066Z,26.20
2022-08-14T20:30:35.275Z,26.20
2022-08-14T20:33:07.524Z,26.20
2022-08-14T20:35:36.891Z,26.20
2022-08-14T20:38:29.293Z,26.20
2022-08-14T20:40:57.880Z,26.20
2022-08-14T20:43:44.462Z,26.20
2022-08-14T20:46:19.049Z,26.20
2022-08-14T20:49:03.219Z,26.10
2022-08-14T20:51:47.698Z,26.20
2022-08-14T20:54:34.492Z,26.10
2022-08-14T20:57:10.613Z,26.10
2022-08-14T20:59:39.969Z,26.10
2022-08-14T21:02:30.450Z,26.10
2022-08-14T21:05:02.663Z,26.10
2022-08-14T21:07:35.522Z,26.10
2022-08-14T21:10:35.698Z,26.10
2022-08-14T21:13:13.956Z,26.10
2022-08-14T21:15:41.052Z,26.10
2022-08-14T21:18:07.740Z,26.10
2022-08-14T21:20:36.960Z,26.10
2022-08-14T21:23:04.064Z,26.10
2022-08-14T21:25:32.290Z,26.10
2022-08-14T21:28:00.752Z,26.10
2022-08-14T21:30:51.045Z,26.10
2022-08-14T21:33:14.551Z,26.00
2022-08-14T21:35:44.509Z,26.00
2022-08-14T21:38:18.297Z,26.10
2022-08-14T21:40:49.717Z,26.10
2022-08-14T21:43:20.658Z,26.00
2022-08-14T21:45:51.749Z,26.00
2022-08-14T21:48:20.781Z,26.10
2022-08-14T21:51:01.080Z,26.00
2022-08-14T21:53:32.935Z,26.00
2022-08-14T21:56:01.419Z,26.00
2022-08-14T21:58:51.447Z,26.00
2022-08-14T22:01:19.309Z,26.00
2022-08-14T22:07:09.177Z,26.00
2022-08-14T22:09:36.864Z,26.00
2022-08-14T22:12:06.980Z,26.10
2022-08-14T22:14:43.236Z,26.20
2022-08-14T22:17:12.921Z,26.40
2022-08-14T22:19:47.623Z,26.50
2022-08-14T22:22:23.179Z,26.70
2022-08-14T22:24:54.095Z,26.80
2022-08-14T22:27:29.613Z,26.90
2022-08-14T22:29:59.260Z,27.00
2022-08-14T22:32:56.150Z,27.00
2022-08-14T22:35:13.210Z,26.90
2022-08-14T22:37:44.821Z,26.80
2022-08-14T22:40:58.113Z,26.70
2022-08-14T22:43:01.220Z,26.70
2022-08-14T22:45:36.522Z,26.60
2022-08-14T22:48:05.017Z,26.50
2022-08-14T22:50:33.781Z,26.50
2022-08-14T22:53:00.746Z,26.40
2022-08-14T22:55:27.565Z,26.40
2022-08-14T22:57:54.285Z,26.40
2022-08-14T23:00:25.124Z,26.30
2022-08-14T23:02:57.300Z,26.30
2022-08-14T23:05:39.850Z,26.20
2022-08-14T23:08:57.706Z,26.20
2022-08-14T23:10:58.606Z,26.20
2022-08-14T23:13:26.431Z,26.20
2022-08-14T23:15:58.067Z,26.30
2022-08-14T23:18:29.878Z,26.40
2022-08-14T23:20:56.889Z,26.60
2022-08-14T23:23:24.247Z,26.70
2022-08-14T23:26:00.129Z,26.70
2022-08-14T23:28:35.017Z,26.70
2022-08-14T23:31:34.547Z,26.70
2022-08-14T23:34:06.587Z,26.60
2022-08-14T23:36:37.534Z,26.50
2022-08-14T23:39:20.305Z,26.50
2022-08-14T23:41:52.731Z,26.40
2022-08-14T23:44:21.611Z,26.40
2022-08-14T23:46:49.533Z,26.30
2022-08-14T23:49:24.638Z,26.30
2022-08-14T23:51:59.722Z,26.30
2022-08-14T23:54:47.581Z,26.20
2022-08-14T23:57:18.958Z,26.20
2022-08-14T23:59:54.357Z,26.20
